sensor_id;sensor_type;location;lat;lon;timestamp;P1;durP1;ratioP1;P2;durP2;ratioP2
37931;SDS011;23758;42.640;23.302;2022-11-04T00:01:50;3.63;;;3.33;;
37931;SDS011;23758;42.640;23.302;2022-11-04T00:04:16;3.53;;;3.22;;
37931;SDS011;23758;42.640;23.302;2022-11-04T00:06:42;4.82;;;4.45;;
37931;SDS011;23758;42.640;23.302;2022-11-04T00:09:10;3.53;;;3.25;;
37931;SDS011;23758;42.640;23.302;2022-11-04T00:11:37;3.28;;;3.08;;
37931;SDS011;23758;42.640;23.302;2022-11-04T00:14:21;3.40;;;3.20;;
37931;SDS011;23758;42.640;23.302;2022-11-04T00:16:46;2.90;;;2.70;;
37931;SDS011;23758;42.640;23.302;2022-11-04T00:19:30;2.97;;;2.78;;
37931;SDS011;23758;42.640;23.302;2022-11-04T00:22:16;3.60;;;3.30;;
37931;SDS011;23758;42.640;23.302;2022-11-04T00:25:00;3.67;;;3.45;;
37931;SDS011;23758;42.640;23.302;2022-11-04T00:27:44;3.00;;;2.80;;
37931;SDS011;23758;42.640;23.302;2022-11-04T00:30:28;3.28;;;3.08;;
37931;SDS011;23758;42.640;23.302;2022-11-04T00:32:53;3.45;;;3.25;;
37931;SDS011;23758;42.640;23.302;2022-11-04T00:35:37;2.83;;;2.63;;
37931;SDS011;23758;42.640;23.302;2022-11-04T00:38:03;5.50;;;3.38;;
37931;SDS011;23758;42.640;23.302;2022-11-04T00:40:28;6.03;;;4.15;;
37931;SDS011;23758;42.640;23.302;2022-11-04T00:42:54;3.22;;;2.97;;
37931;SDS011;23758;42.640;23.302;2022-11-04T00:45:19;3.90;;;3.25;;
37931;SDS011;23758;42.640;23.302;2022-11-04T00:47:45;3.17;;;2.97;;
37931;SDS011;23758;42.640;23.302;2022-11-04T00:50:10;3.17;;;2.97;;
37931;SDS011;23758;42.640;23.302;2022-11-04T00:52:36;4.10;;;3.47;;
37931;SDS011;23758;42.640;23.302;2022-11-04T00:55:01;4.47;;;4.13;;
37931;SDS011;23758;42.640;23.302;2022-11-04T00:57:27;3.58;;;3.35;;
37931;SDS011;23758;42.640;23.302;2022-11-04T00:59:53;4.18;;;3.70;;
37931;SDS011;23758;42.640;23.302;2022-11-04T01:02:18;3.25;;;3.05;;
37931;SDS011;23758;42.640;23.302;2022-11-04T01:04:45;3.47;;;3.25;;
37931;SDS011;23758;42.640;23.302;2022-11-04T01:07:11;2.97;;;2.78;;
37931;SDS011;23758;42.640;23.302;2022-11-04T01:09:36;3.53;;;3.28;;
37931;SDS011;23758;42.640;23.302;2022-11-04T01:12:02;3.47;;;3.28;;
37931;SDS011;23758;42.640;23.302;2022-11-04T01:14:27;3.38;;;3.17;;
37931;SDS011;23758;42.640;23.302;2022-11-04T01:16:53;3.10;;;2.90;;
37931;SDS011;23758;42.640;23.302;2022-11-04T01:19:18;3.20;;;3.00;;
37931;SDS011;23758;42.640;23.302;2022-11-04T01:21:44;3.03;;;2.83;;
37931;SDS011;23758;42.640;23.302;2022-11-04T01:24:09;3.05;;;2.85;;
37931;SDS011;23758;42.640;23.302;2022-11-04T01:26:35;3.10;;;2.90;;
37931;SDS011;23758;42.640;23.302;2022-11-04T01:29:00;3.22;;;3.00;;
37931;SDS011;23758;42.640;23.302;2022-11-04T01:31:27;3.55;;;3.25;;
37931;SDS011;23758;42.640;23.302;2022-11-04T01:33:54;3.47;;;3.17;;
37931;SDS011;23758;42.640;23.302;2022-11-04T01:36:22;3.47;;;3.17;;
37931;SDS011;23758;42.640;23.302;2022-11-04T01:38:48;4.05;;;3.75;;
37931;SDS011;23758;42.640;23.302;2022-11-04T01:41:17;4.05;;;3.53;;
37931;SDS011;23758;42.640;23.302;2022-11-04T01:43:54;2.95;;;2.75;;
37931;SDS011;23758;42.640;23.302;2022-11-04T01:46:29;3.33;;;3.05;;
37931;SDS011;23758;42.640;23.302;2022-11-04T01:51:52;3.05;;;2.85;;
37931;SDS011;23758;42.640;23.302;2022-11-04T01:54:21;19.90;;;3.78;;
37931;SDS011;23758;42.640;23.302;2022-11-04T01:56:46;2.90;;;2.70;;
37931;SDS011;23758;42.640;23.302;2022-11-04T01:59:17;2.78;;;2.58;;
37931;SDS011;23758;42.640;23.302;2022-11-04T02:04:10;2.97;;;2.78;;
37931;SDS011;23758;42.640;23.302;2022-11-04T02:06:50;6.47;;;3.30;;
37931;SDS011;23758;42.640;23.302;2022-11-04T02:09:37;3.72;;;3.05;;
37931;SDS011;23758;42.640;23.302;2022-11-04T02:12:04;3.00;;;2.80;;
37931;SDS011;23758;42.640;23.302;2022-11-04T02:14:48;3.10;;;2.90;;
37931;SDS011;23758;42.640;23.302;2022-11-04T02:27:41;3.30;;;3.10;;
37931;SDS011;23758;42.640;23.302;2022-11-04T02:30:26;2.97;;;2.78;;
37931;SDS011;23758;42.640;23.302;2022-11-04T02:41:05;3.00;;;2.80;;
37931;SDS011;23758;42.640;23.302;2022-11-04T02:46:14;3.63;;;3.33;;
37931;SDS011;23758;42.640;23.302;2022-11-04T02:48:46;3.53;;;3.33;;
37931;SDS011;23758;42.640;23.302;2022-11-04T02:56:48;3.33;;;3.13;;
37931;SDS011;23758;42.640;23.302;2022-11-04T03:02:11;3.03;;;2.83;;
37931;SDS011;23758;42.640;23.302;2022-11-04T03:04:40;4.00;;;3.70;;
37931;SDS011;23758;42.640;23.302;2022-11-04T03:07:10;3.88;;;3.58;;
37931;SDS011;23758;42.640;23.302;2022-11-04T03:09:37;3.25;;;3.05;;
37931;SDS011;23758;42.640;23.302;2022-11-04T03:12:05;3.30;;;3.10;;
37931;SDS011;23758;42.640;23.302;2022-11-04T03:14:34;3.80;;;3.50;;
37931;SDS011;23758;42.640;23.302;2022-11-04T03:17:02;3.92;;;3.63;;
37931;SDS011;23758;42.640;23.302;2022-11-04T03:22:03;3.50;;;3.30;;
37931;SDS011;23758;42.640;23.302;2022-11-04T03:24:32;3.30;;;3.10;;
37931;SDS011;23758;42.640;23.302;2022-11-04T03:26:59;3.97;;;3.60;;
37931;SDS011;23758;42.640;23.302;2022-11-04T03:29:34;3.55;;;3.35;;
37931;SDS011;23758;42.640;23.302;2022-11-04T03:34:29;3.13;;;2.92;;
37931;SDS011;23758;42.640;23.302;2022-11-04T03:36:55;4.20;;;3.90;;
37931;SDS011;23758;42.640;23.302;2022-11-04T03:39:21;3.58;;;3.28;;
37931;SDS011;23758;42.640;23.302;2022-11-04T03:41:48;3.30;;;3.00;;
37931;SDS011;23758;42.640;23.302;2022-11-04T03:44:16;3.30;;;3.10;;
37931;SDS011;23758;42.640;23.302;2022-11-04T03:46:42;3.50;;;3.20;;
37931;SDS011;23758;42.640;23.302;2022-11-04T03:49:08;3.65;;;3.35;;
37931;SDS011;23758;42.640;23.302;2022-11-04T03:51:34;3.63;;;3.33;;
37931;SDS011;23758;42.640;23.302;2022-11-04T03:53:59;2.92;;;2.72;;
37931;SDS011;23758;42.640;23.302;2022-11-04T04:04:22;4.55;;;4.20;;
37931;SDS011;23758;42.640;23.302;2022-11-04T04:07:00;3.00;;;2.80;;
37931;SDS011;23758;42.640;23.302;2022-11-04T04:09:51;3.10;;;2.90;;
37931;SDS011;23758;42.640;23.302;2022-11-04T04:12:34;3.08;;;2.88;;
37931;SDS011;23758;42.640;23.302;2022-11-04T04:15:06;3.55;;;3.35;;
37931;SDS011;23758;42.640;23.302;2022-11-04T04:17:38;10.07;;;4.10;;
37931;SDS011;23758;42.640;23.302;2022-11-04T04:20:10;3.58;;;3.28;;
37931;SDS011;23758;42.640;23.302;2022-11-04T04:22:48;3.83;;;3.53;;
37931;SDS011;23758;42.640;23.302;2022-11-04T04:25:25;3.42;;;3.22;;
37931;SDS011;23758;42.640;23.302;2022-11-04T04:28:11;3.13;;;2.92;;
37931;SDS011;23758;42.640;23.302;2022-11-04T04:30:38;3.65;;;3.45;;
37931;SDS011;23758;42.640;23.302;2022-11-04T04:33:05;3.22;;;3.03;;
37931;SDS011;23758;42.640;23.302;2022-11-04T04:35:35;6.20;;;4.20;;
37931;SDS011;23758;42.640;23.302;2022-11-04T04:38:06;4.10;;;3.75;;
37931;SDS011;23758;42.640;23.302;2022-11-04T04:41:01;3.40;;;3.20;;
37931;SDS011;23758;42.640;23.302;2022-11-04T04:43:47;3.90;;;3.60;;
37931;SDS011;23758;42.640;23.302;2022-11-04T04:46:31;2.97;;;2.78;;
37931;SDS011;23758;42.640;23.302;2022-11-04T04:49:04;3.25;;;3.05;;
37931;SDS011;23758;42.640;23.302;2022-11-04T04:51:30;3.25;;;3.05;;
37931;SDS011;23758;42.640;23.302;2022-11-04T04:53:56;4.10;;;3.70;;
37931;SDS011;23758;42.640;23.302;2022-11-04T04:56:22;3.70;;;3.40;;
37931;SDS011;23758;42.640;23.302;2022-11-04T04:58:47;4.85;;;4.45;;
37931;SDS011;23758;42.640;23.302;2022-11-04T05:01:13;4.03;;;3.75;;
37931;SDS011;23758;42.640;23.302;2022-11-04T05:03:38;3.78;;;3.47;;
37931;SDS011;23758;42.640;23.302;2022-11-04T05:06:04;3.97;;;3.67;;
37931;SDS011;23758;42.640;23.302;2022-11-04T05:08:29;3.85;;;3.58;;
37931;SDS011;23758;42.640;23.302;2022-11-04T05:10:55;4.20;;;3.90;;
37931;SDS011;23758;42.640;23.302;2022-11-04T05:13:20;4.22;;;3.92;;
37931;SDS011;23758;42.640;23.302;2022-11-04T05:15:53;4.63;;;4.30;;
37931;SDS011;23758;42.640;23.302;2022-11-04T05:18:19;4.47;;;4.18;;
37931;SDS011;23758;42.640;23.302;2022-11-04T05:20:44;4.80;;;4.40;;
37931;SDS011;23758;42.640;23.302;2022-11-04T05:23:10;4.18;;;3.88;;
37931;SDS011;23758;42.640;23.302;2022-11-04T05:25:37;4.30;;;4.00;;
37931;SDS011;23758;42.640;23.302;2022-11-04T05:28:03;4.38;;;4.07;;
37931;SDS011;23758;42.640;23.302;2022-11-04T05:30:29;3.80;;;3.55;;
37931;SDS011;23758;42.640;23.302;2022-11-04T05:32:55;3.83;;;3.63;;
37931;SDS011;23758;42.640;23.302;2022-11-04T05:35:20;4.18;;;3.88;;
37931;SDS011;23758;42.640;23.302;2022-11-04T05:37:46;3.60;;;3.40;;
37931;SDS011;23758;42.640;23.302;2022-11-04T05:40:11;4.50;;;4.20;;
37931;SDS011;23758;42.640;23.302;2022-11-04T05:42:37;9.18;;;5.25;;
37931;SDS011;23758;42.640;23.302;2022-11-04T05:45:03;3.67;;;3.47;;
37931;SDS011;23758;42.640;23.302;2022-11-04T05:47:29;3.90;;;3.60;;
37931;SDS011;23758;42.640;23.302;2022-11-04T05:49:54;5.00;;;4.38;;
37931;SDS011;23758;42.640;23.302;2022-11-04T05:52:19;4.07;;;3.78;;
37931;SDS011;23758;42.640;23.302;2022-11-04T05:54:45;3.67;;;3.47;;
37931;SDS011;23758;42.640;23.302;2022-11-04T05:57:11;3.88;;;3.58;;
37931;SDS011;23758;42.640;23.302;2022-11-04T05:59:36;4.00;;;3.70;;
37931;SDS011;23758;42.640;23.302;2022-11-04T06:02:02;4.35;;;4.00;;
37931;SDS011;23758;42.640;23.302;2022-11-04T06:04:28;3.72;;;3.53;;
37931;SDS011;23758;42.640;23.302;2022-11-04T06:06:53;4.22;;;3.92;;
37931;SDS011;23758;42.640;23.302;2022-11-04T06:09:19;3.47;;;3.28;;
37931;SDS011;23758;42.640;23.302;2022-11-04T06:11:44;12.48;;;3.25;;
37931;SDS011;23758;42.640;23.302;2022-11-04T06:14:10;3.88;;;3.58;;
37931;SDS011;23758;42.640;23.302;2022-11-04T06:16:35;3.65;;;3.42;;
37931;SDS011;23758;42.640;23.302;2022-11-04T06:19:01;3.30;;;3.10;;
37931;SDS011;23758;42.640;23.302;2022-11-04T06:21:30;3.58;;;3.28;;
37931;SDS011;23758;42.640;23.302;2022-11-04T06:23:56;3.45;;;3.25;;
37931;SDS011;23758;42.640;23.302;2022-11-04T06:26:23;4.47;;;4.10;;
37931;SDS011;23758;42.640;23.302;2022-11-04T06:28:50;3.88;;;3.58;;
37931;SDS011;23758;42.640;23.302;2022-11-04T06:31:15;3.70;;;3.40;;
37931;SDS011;23758;42.640;23.302;2022-11-04T06:33:41;3.35;;;3.15;;
37931;SDS011;23758;42.640;23.302;2022-11-04T06:36:09;3.83;;;3.53;;
37931;SDS011;23758;42.640;23.302;2022-11-04T06:38:36;3.90;;;3.53;;
37931;SDS011;23758;42.640;23.302;2022-11-04T06:41:02;4.05;;;3.75;;
37931;SDS011;23758;42.640;23.302;2022-11-04T06:43:29;3.75;;;3.45;;
37931;SDS011;23758;42.640;23.302;2022-11-04T06:45:57;3.45;;;3.25;;
37931;SDS011;23758;42.640;23.302;2022-11-04T06:48:24;3.85;;;3.55;;
37931;SDS011;23758;42.640;23.302;2022-11-04T06:50:50;4.05;;;3.75;;
37931;SDS011;23758;42.640;23.302;2022-11-04T06:53:15;3.42;;;3.20;;
37931;SDS011;23758;42.640;23.302;2022-11-04T06:55:41;3.08;;;2.88;;
37931;SDS011;23758;42.640;23.302;2022-11-04T06:58:07;3.10;;;2.90;;
37931;SDS011;23758;42.640;23.302;2022-11-04T07:00:32;3.70;;;3.40;;
37931;SDS011;23758;42.640;23.302;2022-11-04T07:02:58;3.13;;;2.92;;
37931;SDS011;23758;42.640;23.302;2022-11-04T07:05:23;4.75;;;3.55;;
37931;SDS011;23758;42.640;23.302;2022-11-04T07:07:49;3.50;;;3.28;;
37931;SDS011;23758;42.640;23.302;2022-11-04T07:10:14;3.53;;;3.33;;
37931;SDS011;23758;42.640;23.302;2022-11-04T07:12:41;3.75;;;3.45;;
37931;SDS011;23758;42.640;23.302;2022-11-04T07:15:06;3.25;;;3.05;;
37931;SDS011;23758;42.640;23.302;2022-11-04T07:17:32;3.30;;;3.10;;
37931;SDS011;23758;42.640;23.302;2022-11-04T07:19:58;3.20;;;2.90;;
37931;SDS011;23758;42.640;23.302;2022-11-04T07:22:24;5.80;;;3.60;;
37931;SDS011;23758;42.640;23.302;2022-11-04T07:24:49;3.47;;;3.28;;
37931;SDS011;23758;42.640;23.302;2022-11-04T07:27:15;3.10;;;2.90;;
37931;SDS011;23758;42.640;23.302;2022-11-04T07:29:40;4.78;;;3.95;;
37931;SDS011;23758;42.640;23.302;2022-11-04T07:32:06;3.75;;;3.53;;
37931;SDS011;23758;42.640;23.302;2022-11-04T07:34:31;3.35;;;3.15;;
37931;SDS011;23758;42.640;23.302;2022-11-04T07:36:57;3.53;;;3.22;;
37931;SDS011;23758;42.640;23.302;2022-11-04T07:39:22;3.05;;;2.85;;
37931;SDS011;23758;42.640;23.302;2022-11-04T07:41:48;4.85;;;4.03;;
37931;SDS011;23758;42.640;23.302;2022-11-04T07:44:13;3.17;;;2.95;;
37931;SDS011;23758;42.640;23.302;2022-11-04T07:46:39;3.60;;;3.30;;
37931;SDS011;23758;42.640;23.302;2022-11-04T07:49:05;3.10;;;2.90;;
37931;SDS011;23758;42.640;23.302;2022-11-04T07:51:31;3.90;;;3.53;;
37931;SDS011;23758;42.640;23.302;2022-11-04T07:53:57;3.35;;;3.15;;
37931;SDS011;23758;42.640;23.302;2022-11-04T07:56:22;2.70;;;2.50;;
37931;SDS011;23758;42.640;23.302;2022-11-04T07:58:48;3.78;;;3.47;;
37931;SDS011;23758;42.640;23.302;2022-11-04T08:01:15;3.35;;;3.15;;
37931;SDS011;23758;42.640;23.302;2022-11-04T08:03:44;3.63;;;3.33;;
37931;SDS011;23758;42.640;23.302;2022-11-04T08:06:11;4.10;;;3.80;;
37931;SDS011;23758;42.640;23.302;2022-11-04T08:08:37;3.03;;;2.83;;
37931;SDS011;23758;42.640;23.302;2022-11-04T08:11:04;3.65;;;3.35;;
37931;SDS011;23758;42.640;23.302;2022-11-04T08:13:32;4.13;;;3.78;;
37931;SDS011;23758;42.640;23.302;2022-11-04T08:16:06;3.80;;;3.50;;
37931;SDS011;23758;42.640;23.302;2022-11-04T08:18:36;3.92;;;3.55;;
37931;SDS011;23758;42.640;23.302;2022-11-04T08:21:01;5.40;;;3.65;;
37931;SDS011;23758;42.640;23.302;2022-11-04T08:23:28;3.58;;;3.33;;
37931;SDS011;23758;42.640;23.302;2022-11-04T08:25:53;3.92;;;3.63;;
37931;SDS011;23758;42.640;23.302;2022-11-04T08:28:19;3.85;;;3.58;;
37931;SDS011;23758;42.640;23.302;2022-11-04T08:33:16;4.57;;;4.18;;
37931;SDS011;23758;42.640;23.302;2022-11-04T08:35:41;4.03;;;3.72;;
37931;SDS011;23758;42.640;23.302;2022-11-04T08:38:07;5.70;;;4.43;;
37931;SDS011;23758;42.640;23.302;2022-11-04T08:40:32;3.80;;;3.15;;
37931;SDS011;23758;42.640;23.302;2022-11-04T08:43:00;3.53;;;3.22;;
37931;SDS011;23758;42.640;23.302;2022-11-04T08:45:25;3.63;;;3.33;;
37931;SDS011;23758;42.640;23.302;2022-11-04T08:47:51;3.78;;;3.47;;
37931;SDS011;23758;42.640;23.302;2022-11-04T08:50:16;3.92;;;3.60;;
37931;SDS011;23758;42.640;23.302;2022-11-04T08:52:42;6.47;;;3.38;;
37931;SDS011;23758;42.640;23.302;2022-11-04T08:55:07;5.10;;;3.83;;
37931;SDS011;23758;42.640;23.302;2022-11-04T08:57:34;3.63;;;3.33;;
37931;SDS011;23758;42.640;23.302;2022-11-04T08:59:59;3.75;;;3.15;;
37931;SDS011;23758;42.640;23.302;2022-11-04T09:02:24;6.45;;;3.42;;
37931;SDS011;23758;42.640;23.302;2022-11-04T09:04:50;4.43;;;3.55;;
37931;SDS011;23758;42.640;23.302;2022-11-04T09:07:16;3.72;;;3.42;;
37931;SDS011;23758;42.640;23.302;2022-11-04T09:09:41;3.95;;;3.58;;
37931;SDS011;23758;42.640;23.302;2022-11-04T09:12:08;2.92;;;2.72;;
37931;SDS011;23758;42.640;23.302;2022-11-04T09:14:34;3.67;;;3.38;;
37931;SDS011;23758;42.640;23.302;2022-11-04T09:17:00;3.10;;;2.90;;
37931;SDS011;23758;42.640;23.302;2022-11-04T09:19:25;3.80;;;3.40;;
37931;SDS011;23758;42.640;23.302;2022-11-04T09:21:51;3.63;;;3.38;;
37931;SDS011;23758;42.640;23.302;2022-11-04T09:24:16;4.07;;;3.78;;
37931;SDS011;23758;42.640;23.302;2022-11-04T09:26:42;3.15;;;2.95;;
37931;SDS011;23758;42.640;23.302;2022-11-04T09:29:08;4.50;;;3.58;;
37931;SDS011;23758;42.640;23.302;2022-11-04T09:31:34;3.58;;;3.22;;
37931;SDS011;23758;42.640;23.302;2022-11-04T09:34:00;2.88;;;2.67;;
37931;SDS011;23758;42.640;23.302;2022-11-04T09:36:25;3.22;;;3.03;;
37931;SDS011;23758;42.640;23.302;2022-11-04T09:38:53;3.92;;;3.08;;
37931;SDS011;23758;42.640;23.302;2022-11-04T09:44:01;3.05;;;2.85;;
37931;SDS011;23758;42.640;23.302;2022-11-04T09:46:33;3.42;;;3.20;;
37931;SDS011;23758;42.640;23.302;2022-11-04T09:49:00;3.08;;;2.88;;
37931;SDS011;23758;42.640;23.302;2022-11-04T09:51:27;3.85;;;3.20;;
37931;SDS011;23758;42.640;23.302;2022-11-04T09:54:00;3.25;;;3.05;;
37931;SDS011;23758;42.640;23.302;2022-11-04T09:56:33;3.08;;;2.88;;
37931;SDS011;23758;42.640;23.302;2022-11-04T09:59:01;4.03;;;3.50;;
37931;SDS011;23758;42.640;23.302;2022-11-04T10:01:35;4.47;;;4.10;;
37931;SDS011;23758;42.640;23.302;2022-11-04T10:07:05;5.13;;;3.47;;
37931;SDS011;23758;42.640;23.302;2022-11-04T10:12:44;3.60;;;3.30;;
37931;SDS011;23758;42.640;23.302;2022-11-04T10:23:13;3.13;;;2.92;;
37931;SDS011;23758;42.640;23.302;2022-11-04T10:28:35;3.17;;;2.88;;
37931;SDS011;23758;42.640;23.302;2022-11-04T10:31:15;3.08;;;2.88;;
37931;SDS011;23758;42.640;23.302;2022-11-04T10:33:46;3.33;;;3.08;;
37931;SDS011;23758;42.640;23.302;2022-11-04T10:36:14;7.10;;;3.22;;
37931;SDS011;23758;42.640;23.302;2022-11-04T10:38:42;7.15;;;3.33;;
37931;SDS011;23758;42.640;23.302;2022-11-04T10:44:03;3.13;;;2.90;;
37931;SDS011;23758;42.640;23.302;2022-11-04T10:49:15;3.08;;;2.88;;
37931;SDS011;23758;42.640;23.302;2022-11-04T10:52:13;2.88;;;2.65;;
37931;SDS011;23758;42.640;23.302;2022-11-04T10:54:39;2.63;;;2.42;;
37931;SDS011;23758;42.640;23.302;2022-11-04T10:57:09;3.30;;;3.03;;
37931;SDS011;23758;42.640;23.302;2022-11-04T11:02:10;3.78;;;3.47;;
37931;SDS011;23758;42.640;23.302;2022-11-04T11:04:36;3.40;;;3.17;;
37931;SDS011;23758;42.640;23.302;2022-11-04T11:07:08;8.13;;;2.92;;
37931;SDS011;23758;42.640;23.302;2022-11-04T11:09:35;3.33;;;3.03;;
37931;SDS011;23758;42.640;23.302;2022-11-04T11:12:05;3.55;;;3.25;;
37931;SDS011;23758;42.640;23.302;2022-11-04T11:14:42;3.45;;;3.15;;
37931;SDS011;23758;42.640;23.302;2022-11-04T11:24:52;3.45;;;3.15;;
37931;SDS011;23758;42.640;23.302;2022-11-04T11:27:17;4.90;;;2.83;;
37931;SDS011;23758;42.640;23.302;2022-11-04T11:29:46;2.92;;;2.72;;
37931;SDS011;23758;42.640;23.302;2022-11-04T11:32:30;5.72;;;3.22;;
37931;SDS011;23758;42.640;23.302;2022-11-04T11:34:57;3.25;;;2.95;;
37931;SDS011;23758;42.640;23.302;2022-11-04T11:37:26;3.60;;;2.63;;
37931;SDS011;23758;42.640;23.302;2022-11-04T11:39:55;3.47;;;3.17;;
37931;SDS011;23758;42.640;23.302;2022-11-04T11:42:20;6.55;;;3.33;;
37931;SDS011;23758;42.640;23.302;2022-11-04T11:52:33;4.65;;;3.38;;
37931;SDS011;23758;42.640;23.302;2022-11-04T12:00:34;2.20;;;2.10;;
37931;SDS011;23758;42.640;23.302;2022-11-04T12:03:13;2.70;;;2.50;;
37931;SDS011;23758;42.640;23.302;2022-11-04T12:14:19;3.47;;;3.17;;
37931;SDS011;23758;42.640;23.302;2022-11-04T12:16:56;2.60;;;2.40;;
37931;SDS011;23758;42.640;23.302;2022-11-04T12:19:32;2.30;;;2.20;;
37931;SDS011;23758;42.640;23.302;2022-11-04T12:30:23;2.60;;;2.40;;
37931;SDS011;23758;42.640;23.302;2022-11-04T12:32:59;2.60;;;2.38;;
37931;SDS011;23758;42.640;23.302;2022-11-04T12:35:51;2.20;;;2.10;;
37931;SDS011;23758;42.640;23.302;2022-11-04T12:43:26;2.58;;;2.38;;
37931;SDS011;23758;42.640;23.302;2022-11-04T12:46:21;2.63;;;2.42;;
37931;SDS011;23758;42.640;23.302;2022-11-04T12:51:46;2.63;;;2.42;;
37931;SDS011;23758;42.640;23.302;2022-11-04T12:57:12;3.22;;;2.92;;
37931;SDS011;23758;42.640;23.302;2022-11-04T13:04:59;2.83;;;2.63;;
37931;SDS011;23758;42.640;23.302;2022-11-04T13:07:44;2.78;;;2.53;;
37931;SDS011;23758;42.640;23.302;2022-11-04T13:10:29;2.88;;;2.67;;
37931;SDS011;23758;42.640;23.302;2022-11-04T13:13:03;2.72;;;2.53;;
37931;SDS011;23758;42.640;23.302;2022-11-04T13:15:31;2.63;;;2.42;;
37931;SDS011;23758;42.640;23.302;2022-11-04T13:18:20;2.65;;;2.45;;
37931;SDS011;23758;42.640;23.302;2022-11-04T13:21:00;2.83;;;2.63;;
37931;SDS011;23758;42.640;23.302;2022-11-04T13:23:35;4.05;;;3.65;;
37931;SDS011;23758;42.640;23.302;2022-11-04T13:26:04;3.22;;;2.63;;
37931;SDS011;23758;42.640;23.302;2022-11-04T13:28:31;2.75;;;2.55;;
37931;SDS011;23758;42.640;23.302;2022-11-04T13:36:14;3.22;;;2.60;;
37931;SDS011;23758;42.640;23.302;2022-11-04T13:44:04;2.67;;;2.47;;
37931;SDS011;23758;42.640;23.302;2022-11-04T13:46:45;2.50;;;2.30;;
37931;SDS011;23758;42.640;23.302;2022-11-04T13:51:39;2.85;;;2.65;;
37931;SDS011;23758;42.640;23.302;2022-11-04T13:54:06;4.43;;;3.60;;
37931;SDS011;23758;42.640;23.302;2022-11-04T13:56:48;2.50;;;2.30;;
37931;SDS011;23758;42.640;23.302;2022-11-04T14:04:35;3.80;;;2.88;;
37931;SDS011;23758;42.640;23.302;2022-11-04T14:07:02;3.30;;;3.00;;
37931;SDS011;23758;42.640;23.302;2022-11-04T14:22:49;24.95;;;4.50;;
37931;SDS011;23758;42.640;23.302;2022-11-04T14:25:26;3.75;;;3.42;;
37931;SDS011;23758;42.640;23.302;2022-11-04T14:27:57;4.38;;;3.58;;
37931;SDS011;23758;42.640;23.302;2022-11-04T14:30:45;3.38;;;3.08;;
37931;SDS011;23758;42.640;23.302;2022-11-04T14:38:59;14.40;;;4.18;;
37931;SDS011;23758;42.640;23.302;2022-11-04T14:41:32;5.43;;;4.80;;
37931;SDS011;23758;42.640;23.302;2022-11-04T14:44:27;9.27;;;5.57;;
37931;SDS011;23758;42.640;23.302;2022-11-04T14:47:12;9.18;;;6.60;;
37931;SDS011;23758;42.640;23.302;2022-11-04T14:52:45;30.27;;;4.47;;
37931;SDS011;23758;42.640;23.302;2022-11-04T14:55:30;3.60;;;3.33;;
37931;SDS011;23758;42.640;23.302;2022-11-04T14:58:48;3.67;;;3.38;;
37931;SDS011;23758;42.640;23.302;2022-11-04T15:03:17;4.03;;;3.63;;
37931;SDS011;23758;42.640;23.302;2022-11-04T15:08:35;3.65;;;3.33;;
37931;SDS011;23758;42.640;23.302;2022-11-04T15:13:27;2.95;;;2.75;;
37931;SDS011;23758;42.640;23.302;2022-11-04T15:15:53;6.68;;;3.40;;
37931;SDS011;23758;42.640;23.302;2022-11-04T15:18:20;2.95;;;2.75;;
37931;SDS011;23758;42.640;23.302;2022-11-04T15:20:49;4.35;;;3.42;;
37931;SDS011;23758;42.640;23.302;2022-11-04T15:23:19;3.45;;;3.15;;
37931;SDS011;23758;42.640;23.302;2022-11-04T15:25:53;2.65;;;2.45;;
37931;SDS011;23758;42.640;23.302;2022-11-04T15:28:20;3.13;;;2.92;;
37931;SDS011;23758;42.640;23.302;2022-11-04T15:33:31;3.65;;;2.92;;
37931;SDS011;23758;42.640;23.302;2022-11-04T15:36:02;2.63;;;2.42;;
37931;SDS011;23758;42.640;23.302;2022-11-04T15:38:28;3.15;;;2.95;;
37931;SDS011;23758;42.640;23.302;2022-11-04T15:40:55;3.80;;;3.50;;
37931;SDS011;23758;42.640;23.302;2022-11-04T15:43:41;3.38;;;3.08;;
37931;SDS011;23758;42.640;23.302;2022-11-04T15:46:08;6.40;;;2.88;;
37931;SDS011;23758;42.640;23.302;2022-11-04T15:48:41;3.28;;;2.95;;
37931;SDS011;23758;42.640;23.302;2022-11-04T15:53:50;3.03;;;2.50;;
37931;SDS011;23758;42.640;23.302;2022-11-04T15:56:27;2.00;;;1.90;;
37931;SDS011;23758;42.640;23.302;2022-11-04T15:58:56;2.20;;;2.10;;
37931;SDS011;23758;42.640;23.302;2022-11-04T16:01:22;2.20;;;2.10;;
37931;SDS011;23758;42.640;23.302;2022-11-04T16:03:52;2.10;;;2.00;;
37931;SDS011;23758;42.640;23.302;2022-11-04T16:06:35;2.20;;;2.10;;
37931;SDS011;23758;42.640;23.302;2022-11-04T16:11:29;1.85;;;1.75;;
37931;SDS011;23758;42.640;23.302;2022-11-04T16:14:13;2.67;;;2.47;;
37931;SDS011;23758;42.640;23.302;2022-11-04T16:16:48;2.13;;;2.03;;
37931;SDS011;23758;42.640;23.302;2022-11-04T16:19:16;1.90;;;1.80;;
37931;SDS011;23758;42.640;23.302;2022-11-04T16:21:47;2.40;;;2.20;;
37931;SDS011;23758;42.640;23.302;2022-11-04T16:24:18;2.47;;;2.28;;
37931;SDS011;23758;42.640;23.302;2022-11-04T16:26:45;2.20;;;2.10;;
37931;SDS011;23758;42.640;23.302;2022-11-04T16:29:17;2.10;;;2.00;;
37931;SDS011;23758;42.640;23.302;2022-11-04T16:31:45;2.00;;;1.90;;
37931;SDS011;23758;42.640;23.302;2022-11-04T16:34:14;2.10;;;2.00;;
37931;SDS011;23758;42.640;23.302;2022-11-04T16:36:39;2.00;;;1.90;;
37931;SDS011;23758;42.640;23.302;2022-11-04T16:39:05;2.70;;;2.47;;
37931;SDS011;23758;42.640;23.302;2022-11-04T16:41:35;5.10;;;2.65;;
37931;SDS011;23758;42.640;23.302;2022-11-04T16:44:03;2.40;;;2.20;;
37931;SDS011;23758;42.640;23.302;2022-11-04T16:46:31;3.03;;;2.83;;
37931;SDS011;23758;42.640;23.302;2022-11-04T16:48:57;2.60;;;2.40;;
37931;SDS011;23758;42.640;23.302;2022-11-04T16:51:22;2.70;;;2.50;;
37931;SDS011;23758;42.640;23.302;2022-11-04T16:53:48;2.63;;;2.42;;
37931;SDS011;23758;42.640;23.302;2022-11-04T16:56:18;3.17;;;2.88;;
37931;SDS011;23758;42.640;23.302;2022-11-04T16:58:46;2.63;;;2.42;;
37931;SDS011;23758;42.640;23.302;2022-11-04T17:01:12;2.60;;;2.40;;
37931;SDS011;23758;42.640;23.302;2022-11-04T17:03:38;2.75;;;2.55;;
37931;SDS011;23758;42.640;23.302;2022-11-04T17:06:04;4.75;;;3.05;;
37931;SDS011;23758;42.640;23.302;2022-11-04T17:08:30;4.28;;;3.97;;
37931;SDS011;23758;42.640;23.302;2022-11-04T17:10:56;6.55;;;5.60;;
37931;SDS011;23758;42.640;23.302;2022-11-04T17:13:22;6.03;;;5.45;;
37931;SDS011;23758;42.640;23.302;2022-11-04T17:15:47;4.35;;;3.97;;
37931;SDS011;23758;42.640;23.302;2022-11-04T17:18:14;3.08;;;2.85;;
37931;SDS011;23758;42.640;23.302;2022-11-04T17:20:41;4.32;;;3.92;;
37931;SDS011;23758;42.640;23.302;2022-11-04T17:23:12;3.33;;;3.10;;
37931;SDS011;23758;42.640;23.302;2022-11-04T17:25:38;3.33;;;3.05;;
37931;SDS011;23758;42.640;23.302;2022-11-04T17:28:04;3.42;;;3.15;;
37931;SDS011;23758;42.640;23.302;2022-11-04T17:30:29;2.85;;;2.65;;
37931;SDS011;23758;42.640;23.302;2022-11-04T17:32:55;2.95;;;2.75;;
37931;SDS011;23758;42.640;23.302;2022-11-04T17:35:21;3.63;;;3.30;;
37931;SDS011;23758;42.640;23.302;2022-11-04T17:37:49;3.60;;;3.30;;
37931;SDS011;23758;42.640;23.302;2022-11-04T17:40:17;11.43;;;3.25;;
37931;SDS011;23758;42.640;23.302;2022-11-04T17:42:43;2.80;;;2.60;;
37931;SDS011;23758;42.640;23.302;2022-11-04T17:45:27;3.80;;;3.50;;
37931;SDS011;23758;42.640;23.302;2022-11-04T17:47:53;3.33;;;3.13;;
37931;SDS011;23758;42.640;23.302;2022-11-04T17:50:18;4.18;;;3.50;;
37931;SDS011;23758;42.640;23.302;2022-11-04T17:52:43;3.63;;;3.33;;
37931;SDS011;23758;42.640;23.302;2022-11-04T17:55:11;2.88;;;2.67;;